createdAt,value
2023-04-16T00:01:59.313Z,79.93
2023-04-16T00:04:32.627Z,80.13
2023-04-16T00:07:03.173Z,80.26
2023-04-16T00:09:33.586Z,80.35
2023-04-16T00:12:04.228Z,80.38
2023-04-16T00:14:34.575Z,80.65
2023-04-16T00:17:04.998Z,80.40
2023-04-16T00:19:38.391Z,80.51
2023-04-16T00:22:08.879Z,80.55
2023-04-16T00:24:39.223Z,80.41
2023-04-16T00:27:10.026Z,80.64
2023-04-16T00:29:40.414Z,80.62
2023-04-16T00:32:11.011Z,80.31
2023-04-16T00:34:43.998Z,80.33
2023-04-16T00:37:14.432Z,80.11
2023-04-16T00:39:44.751Z,80.52
2023-04-16T00:42:15.381Z,80.16
2023-04-16T00:44:45.625Z,80.35
2023-04-16T00:47:16.250Z,80.37
2023-04-16T00:49:49.551Z,80.12
2023-04-16T00:52:19.980Z,79.74
2023-04-16T00:54:52.231Z,79.74
2023-04-16T00:57:24.336Z,79.87
2023-04-16T00:59:54.923Z,80.02
2023-04-16T01:02:25.400Z,80.31
2023-04-16T01:04:59.042Z,80.47
2023-04-16T01:07:29.262Z,80.13
2023-04-16T01:09:59.533Z,80.65
2023-04-16T01:12:29.756Z,80.87
2023-04-16T01:15:00.238Z,80.74
2023-04-16T01:17:30.591Z,81.19
2023-04-16T01:20:04.454Z,80.75
2023-04-16T01:22:37.206Z,80.99
2023-04-16T01:25:09.549Z,81.20
2023-04-16T01:27:39.950Z,80.92
2023-04-16T01:30:11.788Z,80.83
2023-04-16T01:32:42.191Z,80.87
2023-04-16T01:35:12.757Z,80.97
2023-04-16T01:37:45.622Z,80.54
2023-04-16T01:40:16.102Z,80.84
2023-04-16T01:42:46.448Z,80.90
2023-04-16T01:45:16.984Z,80.83
2023-04-16T01:47:47.650Z,81.03
2023-04-16T01:50:18.372Z,80.83
2023-04-16T01:52:51.340Z,80.90
2023-04-16T01:55:23.122Z,80.57
2023-04-16T01:57:53.997Z,80.74
2023-04-16T02:00:24.529Z,80.09
2023-04-16T02:02:55.231Z,80.24
2023-04-16T02:05:26.150Z,80.35
2023-04-16T02:07:59.466Z,79.84
2023-04-16T02:10:29.854Z,79.95
2023-04-16T02:13:00.240Z,79.91
2023-04-16T02:15:30.496Z,79.44
2023-04-16T02:18:01.127Z,79.47
2023-04-16T02:20:31.547Z,79.61
2023-04-16T02:23:04.530Z,79.47
2023-04-16T02:25:34.746Z,79.60
2023-04-16T02:28:04.971Z,79.43
2023-04-16T02:30:35.706Z,79.44
2023-04-16T02:33:07.607Z,78.85
2023-04-16T02:35:38.432Z,79.33
2023-04-16T02:38:11.712Z,79.43
2023-04-16T02:40:42.085Z,79.47
2023-04-16T02:43:12.507Z,79.28
2023-04-16T02:45:42.771Z,79.36
2023-04-16T02:48:13.671Z,79.55
2023-04-16T02:50:43.976Z,79.23
2023-04-16T02:53:16.846Z,79.59
2023-04-16T02:55:53.118Z,79.26
2023-04-16T02:58:24.459Z,79.71
2023-04-16T03:00:55.527Z,79.54
2023-04-16T03:03:27.892Z,79.41
2023-04-16T03:05:58.365Z,79.56
2023-04-16T03:08:31.389Z,79.30
2023-04-16T03:11:01.948Z,79.47
2023-04-16T03:13:32.196Z,79.56
2023-04-16T03:16:02.533Z,79.23
2023-04-16T03:18:32.765Z,79.71
2023-04-16T03:21:03.507Z,79.50
2023-04-16T03:23:36.663Z,79.65
2023-04-16T03:26:06.978Z,79.82
2023-04-16T03:28:37.260Z,79.44
2023-04-16T03:31:08.012Z,79.33
2023-04-16T03:33:41.541Z,79.77
2023-04-16T03:36:14.760Z,79.45
2023-04-16T03:38:47.634Z,79.43
2023-04-16T03:41:17.984Z,79.76
2023-04-16T03:43:48.430Z,79.94
2023-04-16T03:46:18.658Z,79.60
2023-04-16T03:48:49.012Z,79.54
2023-04-16T03:51:19.836Z,79.91
2023-04-16T03:53:52.700Z,79.61
2023-04-16T03:56:22.934Z,79.97
2023-04-16T03:58:53.193Z,79.50
2023-04-16T04:01:23.508Z,79.79
2023-04-16T04:03:54.283Z,79.49
2023-04-16T04:06:24.719Z,79.61
2023-04-16T04:08:57.688Z,80.13
2023-04-16T04:11:28.441Z,80.05
2023-04-16T04:13:58.905Z,79.88
2023-04-16T04:16:30.053Z,80.07
2023-04-16T04:19:00.420Z,79.97
2023-04-16T04:21:33.837Z,79.46
2023-04-16T04:24:07.096Z,79.52
2023-04-16T04:26:37.538Z,79.65
2023-04-16T04:29:08.042Z,79.81
2023-04-16T04:31:38.671Z,79.52
2023-04-16T04:34:08.948Z,79.50
2023-04-16T04:36:42.135Z,79.80
2023-04-16T04:39:14.937Z,79.89
2023-04-16T04:41:45.362Z,80.05
2023-04-16T04:44:15.711Z,80.19
2023-04-16T04:46:46.246Z,80.08
2023-04-16T04:49:16.524Z,80.48
2023-04-16T04:51:47.016Z,79.81
2023-04-16T04:54:19.908Z,79.67
2023-04-16T04:56:50.457Z,79.08
2023-04-16T04:59:21.157Z,78.76
2023-04-16T05:01:51.987Z,78.56
2023-04-16T05:04:22.391Z,78.28
2023-04-16T05:06:55.104Z,78.15
2023-04-16T05:09:28.051Z,77.49
2023-04-16T05:11:58.399Z,76.67
2023-04-16T05:14:29.263Z,73.41
2023-04-16T05:16:59.561Z,70.47
2023-04-16T05:19:29.965Z,67.56
2023-04-16T05:22:00.252Z,63.47
2023-04-16T05:24:33.112Z,62.56
2023-04-16T05:27:03.583Z,62.53
2023-04-16T05:29:34.033Z,62.96
2023-04-16T05:32:04.405Z,62.77
2023-04-16T05:34:35.252Z,61.86
2023-04-16T05:37:05.603Z,61.25
2023-04-16T05:39:38.564Z,61.93
2023-04-16T05:42:09.227Z,61.63
2023-04-16T05:44:39.560Z,61.50
2023-04-16T05:47:09.961Z,60.83
2023-04-16T05:49:40.262Z,58.86
2023-04-16T05:52:10.694Z,57.68
2023-04-16T05:54:45.657Z,58.40
2023-04-16T05:57:16.678Z,57.85
2023-04-16T05:59:47.332Z,57.67
2023-04-16T06:02:18.078Z,58.06
2023-04-16T06:04:49.304Z,57.95
2023-04-16T06:07:19.611Z,57.14
2023-04-16T06:09:52.578Z,57.08
2023-04-16T06:12:22.928Z,56.94
2023-04-16T06:14:53.221Z,55.92
2023-04-16T06:17:23.674Z,56.16
2023-04-16T06:19:54.103Z,56.11
2023-04-16T06:22:24.563Z,54.51
2023-04-16T06:24:57.474Z,54.99
2023-04-16T06:27:27.869Z,55.18
2023-04-16T06:30:00.214Z,54.52
2023-04-16T06:32:36.355Z,54.47
2023-04-16T06:35:07.175Z,54.15
2023-04-16T06:37:37.684Z,53.95
2023-04-16T06:40:12.113Z,53.51
2023-04-16T06:42:44.820Z,54.02
2023-04-16T06:45:17.359Z,52.88
2023-04-16T06:47:51.379Z,52.70
2023-04-16T06:50:22.504Z,52.47
2023-04-16T06:52:53.179Z,51.53
2023-04-16T06:55:26.018Z,53.64
2023-04-16T06:57:56.685Z,53.51
2023-04-16T07:00:26.889Z,53.38
2023-04-16T07:02:58.765Z,54.60
2023-04-16T07:05:29.268Z,53.28
2023-04-16T07:07:59.877Z,53.39
2023-04-16T07:10:32.717Z,53.10
2023-04-16T07:13:04.439Z,52.65
2023-04-16T07:15:34.954Z,51.08
2023-04-16T07:18:05.649Z,50.97
2023-04-16T07:20:36.452Z,51.27
2023-04-16T07:23:07.536Z,51.24
2023-04-16T07:25:42.493Z,49.71
2023-04-16T07:28:13.274Z,49.43
2023-04-16T07:30:44.097Z,50.24
2023-04-16T07:33:14.702Z,49.57
2023-04-16T07:35:45.551Z,49.24
2023-04-16T07:38:16.567Z,49.54
2023-04-16T07:40:49.568Z,48.58
2023-04-16T07:43:19.973Z,48.18
2023-04-16T07:45:50.249Z,47.94
2023-04-16T07:48:21.230Z,46.90
2023-04-16T07:50:51.639Z,46.54
2023-04-16T07:53:22.173Z,46.07
2023-04-16T07:55:57.604Z,47.27
2023-04-16T07:58:28.146Z,45.66
2023-04-16T08:01:01.665Z,44.94
2023-04-16T08:03:32.191Z,44.59
2023-04-16T08:06:02.873Z,43.98
2023-04-16T08:08:33.508Z,42.42
2023-04-16T08:11:06.639Z,42.47
2023-04-16T08:13:37.515Z,42.67
2023-04-16T08:16:08.628Z,43.05
2023-04-16T08:18:38.977Z,42.72
2023-04-16T08:21:09.567Z,42.58
2023-04-16T08:23:39.818Z,41.82
2023-04-16T08:26:12.707Z,41.65
2023-04-16T08:28:43.268Z,43.23
2023-04-16T08:31:14.214Z,43.00
2023-04-16T08:33:44.829Z,43.61
2023-04-16T08:36:15.076Z,41.40
2023-04-16T08:38:45.535Z,40.37
2023-04-16T08:41:19.424Z,37.86
2023-04-16T08:43:53.493Z,38.94
2023-04-16T08:46:29.019Z,36.13
2023-04-16T08:49:02.511Z,36.32
2023-04-16T08:51:33.533Z,36.76
2023-04-16T08:54:07.228Z,38.14
2023-04-16T08:56:43.087Z,37.80
2023-04-16T08:59:13.830Z,37.29
2023-04-16T09:01:44.662Z,38.87
2023-04-16T09:04:19.604Z,38.37
2023-04-16T09:06:51.568Z,39.77
2023-04-16T09:09:24.263Z,40.33
2023-04-16T09:11:57.520Z,38.64
2023-04-16T09:14:28.120Z,39.12
2023-04-16T09:17:01.434Z,39.32
2023-04-16T09:19:31.844Z,39.54
2023-04-16T09:22:06.423Z,38.86
2023-04-16T09:24:38.792Z,36.17
2023-04-16T09:27:13.283Z,37.82
2023-04-16T09:29:44.699Z,39.23
2023-04-16T09:32:15.318Z,38.26
2023-04-16T09:35:06.561Z,38.21
2023-04-16T09:37:38.384Z,39.06
2023-04-16T09:40:10.705Z,37.47
2023-04-16T09:42:44.205Z,38.35
2023-04-16T09:45:14.843Z,38.74
2023-04-16T09:47:47.948Z,39.19
2023-04-16T09:50:19.754Z,38.60
2023-04-16T09:52:52.844Z,37.97
2023-04-16T09:55:26.652Z,36.46
2023-04-16T09:58:04.372Z,36.95
2023-04-16T10:00:43.365Z,36.96
2023-04-16T10:03:14.285Z,39.98
2023-04-16T10:05:44.755Z,38.06
2023-04-16T10:08:16.039Z,37.00
2023-04-16T10:10:47.456Z,35.51
2023-04-16T10:13:20.690Z,35.51
2023-04-16T10:15:52.304Z,35.50
2023-04-16T10:18:23.800Z,37.28
2023-04-16T10:20:54.320Z,35.35
2023-04-16T10:23:25.583Z,35.06
2023-04-16T10:25:58.772Z,33.60
2023-04-16T10:28:32.150Z,29.80
2023-04-16T10:31:04.131Z,30.54
2023-04-16T10:33:37.335Z,31.19
2023-04-16T10:36:12.577Z,30.93
2023-04-16T10:38:43.862Z,32.94
2023-04-16T10:41:14.323Z,33.28
2023-04-16T10:43:48.250Z,32.01
2023-04-16T10:46:23.121Z,31.95
2023-04-16T10:48:56.298Z,32.03
2023-04-16T10:51:29.141Z,30.67
2023-04-16T10:54:00.254Z,31.92
2023-04-16T10:56:31.713Z,31.77
2023-04-16T10:59:08.068Z,31.53
2023-04-16T11:01:40.448Z,32.04
2023-04-16T11:04:39.922Z,32.72
2023-04-16T11:07:18.782Z,31.22
2023-04-16T11:09:57.378Z,32.66
2023-04-16T11:12:30.225Z,32.94
2023-04-16T11:15:05.885Z,32.34
2023-04-16T11:17:40.790Z,32.56
2023-04-16T11:20:17.774Z,32.25
2023-04-16T11:22:53.950Z,32.39
2023-04-16T11:25:25.164Z,32.40
2023-04-16T11:27:56.329Z,32.14
2023-04-16T11:30:35.150Z,32.60
2023-04-16T11:33:08.805Z,32.42
2023-04-16T11:35:39.546Z,31.01
2023-04-16T11:38:10.262Z,30.03
2023-04-16T11:40:41.837Z,30.04
2023-04-16T11:43:17.786Z,31.55
2023-04-16T11:46:07.460Z,31.23
2023-04-16T11:48:51.015Z,31.22
2023-04-16T11:51:23.621Z,30.89
2023-04-16T11:53:55.542Z,30.67
2023-04-16T11:56:30.448Z,29.38
2023-04-16T11:59:14.481Z,29.60
2023-04-16T12:01:50.258Z,29.77
2023-04-16T12:04:24.740Z,31.01
2023-04-16T12:07:11.565Z,31.40
2023-04-16T12:09:43.715Z,31.20
2023-04-16T12:12:31.599Z,31.54
2023-04-16T12:15:04.097Z,32.14
2023-04-16T12:17:38.851Z,30.12
2023-04-16T12:20:13.153Z,28.84
2023-04-16T12:22:47.494Z,28.58
2023-04-16T12:25:19.576Z,27.93
2023-04-16T12:27:53.875Z,28.49
2023-04-16T12:30:31.077Z,29.07
2023-04-16T12:33:22.210Z,29.30
2023-04-16T12:35:52.984Z,29.04
2023-04-16T12:38:24.665Z,29.18
2023-04-16T12:40:57.428Z,28.62
2023-04-16T12:43:28.717Z,30.07
2023-04-16T12:45:59.352Z,28.63
2023-04-16T12:48:32.857Z,29.58
2023-04-16T12:51:03.323Z,28.89
2023-04-16T12:53:35.867Z,29.36
2023-04-16T12:56:06.180Z,30.08
2023-04-16T12:58:36.795Z,28.62
2023-04-16T13:01:07.264Z,27.55
2023-04-16T13:03:43.350Z,27.24
2023-04-16T13:06:13.933Z,28.54
2023-04-16T13:08:44.405Z,27.80
2023-04-16T13:11:15.913Z,27.89
2023-04-16T13:13:46.348Z,26.84
2023-04-16T13:16:16.691Z,27.29
2023-04-16T13:18:49.686Z,28.16
2023-04-16T13:21:21.159Z,27.81
2023-04-16T13:23:52.016Z,27.00
2023-04-16T13:26:22.896Z,27.09
2023-04-16T13:28:53.167Z,26.62
2023-04-16T13:31:24.043Z,27.59
2023-04-16T13:33:57.554Z,27.31
2023-04-16T13:36:28.037Z,27.47
2023-04-16T13:38:58.333Z,27.26
2023-04-16T13:41:29.375Z,26.07
2023-04-16T13:43:59.608Z,26.90
2023-04-16T13:46:30.075Z,27.29
2023-04-16T13:49:02.909Z,25.63
2023-04-16T13:51:33.183Z,25.73
2023-04-16T13:54:03.920Z,26.67
2023-04-16T13:56:34.323Z,26.28
2023-04-16T13:59:05.230Z,25.45
2023-04-16T14:01:35.622Z,27.02
2023-04-16T14:04:10.140Z,24.84
2023-04-16T14:06:40.570Z,25.32
2023-04-16T14:09:11.610Z,26.95
2023-04-16T14:11:42.942Z,27.25
2023-04-16T14:14:13.295Z,26.56
2023-04-16T14:16:43.676Z,28.00
2023-04-16T14:19:16.692Z,27.83
2023-04-16T14:21:47.044Z,26.90
2023-04-16T14:24:17.553Z,26.65
2023-04-16T14:26:47.816Z,26.69
2023-04-16T14:29:18.145Z,28.74
2023-04-16T14:31:50.434Z,29.40
2023-04-16T14:34:24.097Z,29.08
2023-04-16T14:36:54.076Z,30.23
2023-04-16T14:39:24.508Z,29.02
2023-04-16T14:41:55.115Z,28.84
2023-04-16T14:44:25.838Z,28.05
2023-04-16T14:46:59.059Z,28.20
2023-04-16T14:49:32.186Z,28.46
2023-04-16T14:52:05.498Z,29.21
2023-04-16T14:54:36.317Z,29.10
2023-04-16T14:57:07.531Z,29.18
2023-04-16T14:59:37.933Z,29.43
2023-04-16T15:02:08.499Z,29.27
2023-04-16T15:04:41.687Z,27.74
2023-04-16T15:07:12.064Z,24.94
2023-04-16T15:09:42.360Z,25.95
2023-04-16T15:12:12.900Z,26.00
2023-04-16T15:14:43.435Z,26.85
2023-04-16T15:17:14.093Z,26.58
2023-04-16T15:19:47.004Z,26.79
2023-04-16T15:22:17.739Z,26.88
2023-04-16T15:24:48.091Z,26.76
2023-04-16T15:27:19.567Z,27.07
2023-04-16T15:29:50.993Z,27.12
2023-04-16T15:32:22.368Z,26.65
2023-04-16T15:34:55.361Z,26.96
2023-04-16T15:37:25.748Z,26.75
2023-04-16T15:39:56.886Z,26.29
2023-04-16T15:42:27.550Z,27.02
2023-04-16T15:44:57.829Z,27.40
2023-04-16T15:47:28.231Z,27.18
2023-04-16T15:50:01.258Z,26.66
2023-04-16T15:52:31.571Z,27.55
2023-04-16T15:55:04.079Z,27.96
2023-04-16T15:57:35.097Z,27.81
2023-04-16T16:00:13.575Z,27.62
2023-04-16T16:02:44.796Z,28.02
2023-04-16T16:05:18.930Z,28.00
2023-04-16T16:07:50.949Z,28.68
2023-04-16T16:10:21.298Z,28.45
2023-04-16T16:12:51.647Z,28.93
2023-04-16T16:15:22.229Z,29.24
2023-04-16T16:17:55.852Z,29.34
2023-04-16T16:20:29.143Z,29.65
2023-04-16T16:23:00.251Z,29.41
2023-04-16T16:25:30.665Z,30.29
2023-04-16T16:28:03.624Z,30.13
2023-04-16T16:30:36.347Z,29.91
2023-04-16T16:33:07.353Z,29.54
2023-04-16T16:35:43.522Z,30.00
2023-04-16T16:38:13.821Z,30.21
2023-04-16T16:40:44.976Z,29.67
2023-04-16T16:43:15.569Z,30.29
2023-04-16T16:45:47.310Z,30.04
2023-04-16T16:48:18.043Z,30.32
2023-04-16T16:50:51.175Z,29.97
2023-04-16T16:53:28.360Z,30.52
2023-04-16T16:55:58.603Z,30.77
2023-04-16T16:58:28.931Z,30.87
2023-04-16T17:00:59.485Z,30.89
2023-04-16T17:03:30.249Z,31.37
2023-04-16T17:06:03.385Z,31.98
2023-04-16T17:08:33.700Z,31.86
2023-04-16T17:11:06.351Z,32.53
2023-04-16T17:13:37.412Z,32.80
2023-04-16T17:16:08.128Z,32.74
2023-04-16T17:18:39.727Z,32.70
2023-04-16T17:21:14.010Z,33.51
2023-04-16T17:23:45.485Z,33.88
2023-04-16T17:26:17.375Z,34.67
2023-04-16T17:28:47.829Z,34.72
2023-04-16T17:31:18.536Z,34.96
2023-04-16T17:33:49.277Z,35.48
2023-04-16T17:36:30.729Z,36.49
2023-04-16T17:39:01.229Z,36.95
2023-04-16T17:41:31.543Z,37.37
2023-04-16T17:44:02.302Z,38.89
2023-04-16T17:46:32.583Z,39.38
2023-04-16T17:49:04.354Z,40.87
2023-04-16T17:51:40.113Z,41.02
2023-04-16T17:54:10.633Z,41.58
2023-04-16T17:56:41.122Z,42.09
2023-04-16T17:59:11.689Z,41.92
2023-04-16T18:01:42.500Z,42.00
2023-04-16T18:04:13.734Z,42.17
2023-04-16T18:06:47.025Z,42.79
2023-04-16T18:09:17.573Z,43.14
2023-04-16T18:11:48.062Z,43.44
2023-04-16T18:14:20.652Z,43.13
2023-04-16T18:16:51.128Z,43.89
2023-04-16T18:19:22.350Z,43.93
2023-04-16T18:21:55.223Z,45.14
2023-04-16T18:24:25.701Z,45.71
2023-04-16T18:26:56.942Z,45.36
2023-04-16T18:29:30.234Z,45.63
2023-04-16T18:32:03.726Z,45.91
2023-04-16T18:34:37.843Z,45.88
2023-04-16T18:37:10.849Z,45.98
2023-04-16T18:39:42.134Z,45.29
2023-04-16T18:42:14.520Z,45.39
2023-04-16T18:44:47.078Z,45.31
2023-04-16T18:47:17.441Z,44.55
2023-04-16T18:49:48.471Z,43.69
2023-04-16T18:52:22.244Z,43.77
2023-04-16T18:54:52.655Z,43.18
2023-04-16T18:57:22.970Z,43.00
2023-04-16T18:59:54.654Z,43.28
2023-04-16T19:02:25.009Z,43.10
2023-04-16T19:04:55.699Z,42.21
2023-04-16T19:07:28.661Z,42.35
2023-04-16T19:10:00.276Z,41.55
2023-04-16T19:12:31.556Z,40.59
2023-04-16T19:15:04.159Z,39.99
2023-04-16T19:17:34.604Z,39.60
2023-04-16T19:20:09.119Z,39.34
2023-04-16T19:22:43.697Z,39.91
2023-04-16T19:25:14.094Z,39.95
2023-04-16T19:27:44.308Z,39.85
2023-04-16T19:30:15.055Z,40.02
2023-04-16T19:32:45.397Z,40.94
2023-04-16T19:41:16.206Z,42.16
2023-04-16T19:43:46.513Z,42.26
2023-04-16T19:46:16.980Z,42.54
2023-04-16T19:48:48.790Z,42.00
